sensor_id;sensor_type;location;lat;lon;timestamp;P1;durP1;ratioP1;P2;durP2;ratioP2
63157;SDS011;49381;49.338;8.794;2022-12-22T00:04:04;4.45;;;1.60;;
63157;SDS011;49381;49.338;8.794;2022-12-22T00:08:31;2.45;;;1.40;;
63157;SDS011;49381;49.338;8.794;2022-12-22T00:10:32;2.60;;;1.48;;
63157;SDS011;49381;49.338;8.794;2022-12-22T00:12:37;3.00;;;1.67;;
63157;SDS011;49381;49.338;8.794;2022-12-22T00:14:38;5.78;;;2.33;;
63157;SDS011;49381;49.338;8.794;2022-12-22T00:16:41;6.45;;;2.13;;
63157;SDS011;49381;49.338;8.794;2022-12-22T00:18:48;4.85;;;2.10;;
63157;SDS011;49381;49.338;8.794;2022-12-22T00:20:58;6.32;;;3.10;;
63157;SDS011;49381;49.338;8.794;2022-12-22T00:23:01;4.38;;;2.88;;
63157;SDS011;49381;49.338;8.794;2022-12-22T00:25:05;7.95;;;3.20;;
63157;SDS011;49381;49.338;8.794;2022-12-22T00:27:12;5.65;;;2.67;;
63157;SDS011;49381;49.338;8.794;2022-12-22T00:29:15;7.45;;;3.35;;
63157;SDS011;49381;49.338;8.794;2022-12-22T00:31:15;4.20;;;2.42;;
63157;SDS011;49381;49.338;8.794;2022-12-22T00:33:17;6.05;;;2.70;;
63157;SDS011;49381;49.338;8.794;2022-12-22T00:35:20;6.35;;;2.70;;
63157;SDS011;49381;49.338;8.794;2022-12-22T00:37:22;7.97;;;2.28;;
63157;SDS011;49381;49.338;8.794;2022-12-22T00:39:29;2.55;;;1.90;;
63157;SDS011;49381;49.338;8.794;2022-12-22T00:41:29;6.10;;;2.00;;
63157;SDS011;49381;49.338;8.794;2022-12-22T00:43:29;4.15;;;1.80;;
63157;SDS011;49381;49.338;8.794;2022-12-22T00:45:30;4.78;;;1.60;;
63157;SDS011;49381;49.338;8.794;2022-12-22T00:47:30;6.43;;;1.50;;
63157;SDS011;49381;49.338;8.794;2022-12-22T00:49:31;2.88;;;1.55;;
63157;SDS011;49381;49.338;8.794;2022-12-22T00:51:33;2.13;;;1.38;;
63157;SDS011;49381;49.338;8.794;2022-12-22T00:53:33;5.18;;;2.05;;
63157;SDS011;49381;49.338;8.794;2022-12-22T00:55:35;4.28;;;2.00;;
63157;SDS011;49381;49.338;8.794;2022-12-22T00:57:36;4.10;;;1.50;;
63157;SDS011;49381;49.338;8.794;2022-12-22T00:59:36;3.35;;;1.50;;
63157;SDS011;49381;49.338;8.794;2022-12-22T01:01:37;3.05;;;1.70;;
63157;SDS011;49381;49.338;8.794;2022-12-22T01:03:37;5.18;;;1.70;;
63157;SDS011;49381;49.338;8.794;2022-12-22T01:05:38;4.93;;;1.60;;
63157;SDS011;49381;49.338;8.794;2022-12-22T01:07:38;3.38;;;1.27;;
63157;SDS011;49381;49.338;8.794;2022-12-22T01:09:38;11.38;;;2.35;;
63157;SDS011;49381;49.338;8.794;2022-12-22T01:11:42;2.95;;;1.67;;
63157;SDS011;49381;49.338;8.794;2022-12-22T01:13:42;4.25;;;1.40;;
63157;SDS011;49381;49.338;8.794;2022-12-22T01:15:43;4.28;;;1.38;;
63157;SDS011;49381;49.338;8.794;2022-12-22T01:17:43;3.55;;;1.48;;
63157;SDS011;49381;49.338;8.794;2022-12-22T01:19:44;3.95;;;1.70;;
63157;SDS011;49381;49.338;8.794;2022-12-22T01:21:44;2.58;;;1.33;;
63157;SDS011;49381;49.338;8.794;2022-12-22T01:23:44;3.20;;;1.35;;
63157;SDS011;49381;49.338;8.794;2022-12-22T01:25:45;4.03;;;1.70;;
63157;SDS011;49381;49.338;8.794;2022-12-22T01:27:46;3.40;;;1.70;;
63157;SDS011;49381;49.338;8.794;2022-12-22T01:29:47;5.72;;;1.98;;
63157;SDS011;49381;49.338;8.794;2022-12-22T01:31:47;3.45;;;1.45;;
63157;SDS011;49381;49.338;8.794;2022-12-22T01:33:48;4.22;;;1.52;;
63157;SDS011;49381;49.338;8.794;2022-12-22T01:35:48;4.13;;;1.65;;
63157;SDS011;49381;49.338;8.794;2022-12-22T01:37:48;6.78;;;2.15;;
63157;SDS011;49381;49.338;8.794;2022-12-22T01:39:48;2.95;;;1.55;;
63157;SDS011;49381;49.338;8.794;2022-12-22T01:41:49;4.18;;;1.60;;
63157;SDS011;49381;49.338;8.794;2022-12-22T01:43:51;1.73;;;1.15;;
63157;SDS011;49381;49.338;8.794;2022-12-22T01:45:51;2.78;;;1.45;;
63157;SDS011;49381;49.338;8.794;2022-12-22T01:47:51;4.35;;;1.50;;
63157;SDS011;49381;49.338;8.794;2022-12-22T01:49:51;2.55;;;1.17;;
63157;SDS011;49381;49.338;8.794;2022-12-22T01:51:52;3.10;;;1.23;;
63157;SDS011;49381;49.338;8.794;2022-12-22T01:53:52;2.65;;;1.40;;
63157;SDS011;49381;49.338;8.794;2022-12-22T01:55:53;3.47;;;1.33;;
63157;SDS011;49381;49.338;8.794;2022-12-22T01:57:55;3.38;;;1.27;;
63157;SDS011;49381;49.338;8.794;2022-12-22T01:59:57;2.80;;;1.17;;
63157;SDS011;49381;49.338;8.794;2022-12-22T02:01:58;2.97;;;1.40;;
63157;SDS011;49381;49.338;8.794;2022-12-22T02:03:59;1.77;;;1.13;;
63157;SDS011;49381;49.338;8.794;2022-12-22T02:06:03;2.33;;;1.35;;
63157;SDS011;49381;49.338;8.794;2022-12-22T02:08:13;2.25;;;1.40;;
63157;SDS011;49381;49.338;8.794;2022-12-22T02:10:23;3.17;;;1.10;;
63157;SDS011;49381;49.338;8.794;2022-12-22T02:12:34;1.88;;;1.25;;
63157;SDS011;49381;49.338;8.794;2022-12-22T02:14:39;1.38;;;1.02;;
63157;SDS011;49381;49.338;8.794;2022-12-22T02:16:48;1.98;;;1.10;;
63157;SDS011;49381;49.338;8.794;2022-12-22T02:18:55;2.22;;;1.00;;
63157;SDS011;49381;49.338;8.794;2022-12-22T02:20:59;3.92;;;1.73;;
63157;SDS011;49381;49.338;8.794;2022-12-22T02:23:05;3.35;;;1.40;;
63157;SDS011;49381;49.338;8.794;2022-12-22T02:25:14;1.73;;;1.00;;
63157;SDS011;49381;49.338;8.794;2022-12-22T02:27:19;3.55;;;1.20;;
63157;SDS011;49381;49.338;8.794;2022-12-22T02:29:21;2.78;;;0.95;;
63157;SDS011;49381;49.338;8.794;2022-12-22T02:31:26;3.50;;;1.17;;
63157;SDS011;49381;49.338;8.794;2022-12-22T02:33:33;2.75;;;0.85;;
63157;SDS011;49381;49.338;8.794;2022-12-22T02:35:34;2.33;;;1.20;;
63157;SDS011;49381;49.338;8.794;2022-12-22T02:37:44;1.75;;;1.00;;
63157;SDS011;49381;49.338;8.794;2022-12-22T02:39:49;2.90;;;1.00;;
63157;SDS011;49381;49.338;8.794;2022-12-22T02:41:59;1.65;;;0.95;;
63157;SDS011;49381;49.338;8.794;2022-12-22T02:44:13;2.80;;;1.10;;
63157;SDS011;49381;49.338;8.794;2022-12-22T02:46:23;3.03;;;1.02;;
63157;SDS011;49381;49.338;8.794;2022-12-22T02:48:31;2.97;;;1.10;;
63157;SDS011;49381;49.338;8.794;2022-12-22T02:50:39;2.25;;;1.63;;
63157;SDS011;49381;49.338;8.794;2022-12-22T02:52:43;2.50;;;1.20;;
63157;SDS011;49381;49.338;8.794;2022-12-22T02:54:45;3.25;;;1.00;;
63157;SDS011;49381;49.338;8.794;2022-12-22T02:56:46;2.40;;;1.20;;
63157;SDS011;49381;49.338;8.794;2022-12-22T02:58:46;1.27;;;0.82;;
63157;SDS011;49381;49.338;8.794;2022-12-22T03:00:48;2.95;;;1.13;;
63157;SDS011;49381;49.338;8.794;2022-12-22T03:02:49;1.77;;;0.80;;
63157;SDS011;49381;49.338;8.794;2022-12-22T03:04:49;3.28;;;1.10;;
63157;SDS011;49381;49.338;8.794;2022-12-22T03:07:13;2.60;;;1.20;;
63157;SDS011;49381;49.338;8.794;2022-12-22T03:11:41;1.95;;;0.98;;
63157;SDS011;49381;49.338;8.794;2022-12-22T03:14:12;2.95;;;0.95;;
63157;SDS011;49381;49.338;8.794;2022-12-22T03:16:23;3.15;;;0.80;;
63157;SDS011;49381;49.338;8.794;2022-12-22T03:23:41;2.42;;;0.85;;
63157;SDS011;49381;49.338;8.794;2022-12-22T03:25:42;1.13;;;0.77;;
63157;SDS011;49381;49.338;8.794;2022-12-22T03:27:52;4.05;;;1.20;;
63157;SDS011;49381;49.338;8.794;2022-12-22T03:29:52;1.92;;;1.23;;
63157;SDS011;49381;49.338;8.794;2022-12-22T03:31:57;1.23;;;0.85;;
63157;SDS011;49381;49.338;8.794;2022-12-22T03:33:57;0.82;;;0.63;;
63157;SDS011;49381;49.338;8.794;2022-12-22T03:35:59;2.53;;;0.77;;
63157;SDS011;49381;49.338;8.794;2022-12-22T03:38:02;1.00;;;0.70;;
63157;SDS011;49381;49.338;8.794;2022-12-22T03:40:03;2.03;;;0.73;;
63157;SDS011;49381;49.338;8.794;2022-12-22T03:42:04;3.42;;;1.15;;
63157;SDS011;49381;49.338;8.794;2022-12-22T03:44:06;4.82;;;0.90;;
63157;SDS011;49381;49.338;8.794;2022-12-22T03:46:14;1.27;;;0.80;;
63157;SDS011;49381;49.338;8.794;2022-12-22T03:48:23;4.03;;;1.00;;
63157;SDS011;49381;49.338;8.794;2022-12-22T03:50:24;2.33;;;1.00;;
63157;SDS011;49381;49.338;8.794;2022-12-22T03:52:26;3.17;;;0.93;;
63157;SDS011;49381;49.338;8.794;2022-12-22T03:54:26;3.33;;;0.80;;
63157;SDS011;49381;49.338;8.794;2022-12-22T03:56:28;2.38;;;0.98;;
63157;SDS011;49381;49.338;8.794;2022-12-22T03:58:30;4.88;;;1.52;;
63157;SDS011;49381;49.338;8.794;2022-12-22T04:00:33;3.05;;;1.05;;
63157;SDS011;49381;49.338;8.794;2022-12-22T04:02:33;4.15;;;0.80;;
63157;SDS011;49381;49.338;8.794;2022-12-22T04:04:35;2.33;;;0.98;;
63157;SDS011;49381;49.338;8.794;2022-12-22T04:06:36;3.28;;;0.90;;
63157;SDS011;49381;49.338;8.794;2022-12-22T04:08:37;4.47;;;1.48;;
63157;SDS011;49381;49.338;8.794;2022-12-22T04:10:37;3.45;;;1.15;;
63157;SDS011;49381;49.338;8.794;2022-12-22T04:12:37;1.95;;;0.80;;
63157;SDS011;49381;49.338;8.794;2022-12-22T04:14:38;4.63;;;0.98;;
63157;SDS011;49381;49.338;8.794;2022-12-22T04:16:38;1.48;;;0.80;;
63157;SDS011;49381;49.338;8.794;2022-12-22T04:18:39;2.63;;;0.85;;
63157;SDS011;49381;49.338;8.794;2022-12-22T04:20:41;1.52;;;0.70;;
63157;SDS011;49381;49.338;8.794;2022-12-22T04:22:41;3.92;;;0.98;;
63157;SDS011;49381;49.338;8.794;2022-12-22T04:24:42;2.50;;;1.10;;
63157;SDS011;49381;49.338;8.794;2022-12-22T04:26:42;2.10;;;0.80;;
63157;SDS011;49381;49.338;8.794;2022-12-22T04:28:43;3.25;;;1.08;;
63157;SDS011;49381;49.338;8.794;2022-12-22T04:30:43;2.80;;;1.02;;
63157;SDS011;49381;49.338;8.794;2022-12-22T04:32:43;3.20;;;0.90;;
63157;SDS011;49381;49.338;8.794;2022-12-22T04:34:44;4.00;;;1.27;;
63157;SDS011;49381;49.338;8.794;2022-12-22T04:36:45;3.33;;;1.00;;
63157;SDS011;49381;49.338;8.794;2022-12-22T04:38:46;2.15;;;0.75;;
63157;SDS011;49381;49.338;8.794;2022-12-22T04:40:46;3.22;;;0.90;;
63157;SDS011;49381;49.338;8.794;2022-12-22T04:42:47;2.63;;;0.95;;
63157;SDS011;49381;49.338;8.794;2022-12-22T04:44:47;2.20;;;0.90;;
63157;SDS011;49381;49.338;8.794;2022-12-22T04:46:47;5.40;;;1.05;;
63157;SDS011;49381;49.338;8.794;2022-12-22T04:48:48;4.30;;;0.90;;
63157;SDS011;49381;49.338;8.794;2022-12-22T04:50:48;5.35;;;1.00;;
63157;SDS011;49381;49.338;8.794;2022-12-22T04:52:51;3.67;;;0.95;;
63157;SDS011;49381;49.338;8.794;2022-12-22T04:54:51;4.57;;;0.85;;
63157;SDS011;49381;49.338;8.794;2022-12-22T04:56:51;4.13;;;1.40;;
63157;SDS011;49381;49.338;8.794;2022-12-22T04:58:52;4.80;;;0.98;;
63157;SDS011;49381;49.338;8.794;2022-12-22T05:00:52;4.63;;;1.25;;
63157;SDS011;49381;49.338;8.794;2022-12-22T05:02:53;5.05;;;0.90;;
63157;SDS011;49381;49.338;8.794;2022-12-22T05:04:53;2.20;;;0.80;;
63157;SDS011;49381;49.338;8.794;2022-12-22T05:06:53;4.07;;;1.00;;
63157;SDS011;49381;49.338;8.794;2022-12-22T05:08:55;5.40;;;1.48;;
63157;SDS011;49381;49.338;8.794;2022-12-22T05:10:55;3.03;;;1.10;;
63157;SDS011;49381;49.338;8.794;2022-12-22T05:12:55;4.13;;;1.30;;
63157;SDS011;49381;49.338;8.794;2022-12-22T05:14:56;4.32;;;1.30;;
63157;SDS011;49381;49.338;8.794;2022-12-22T05:16:56;5.75;;;1.00;;
63157;SDS011;49381;49.338;8.794;2022-12-22T05:18:56;2.70;;;0.95;;
63157;SDS011;49381;49.338;8.794;2022-12-22T05:20:57;4.68;;;1.10;;
63157;SDS011;49381;49.338;8.794;2022-12-22T05:22:57;2.92;;;1.20;;
63157;SDS011;49381;49.338;8.794;2022-12-22T05:24:59;2.50;;;1.10;;
63157;SDS011;49381;49.338;8.794;2022-12-22T05:26:59;5.85;;;1.40;;
63157;SDS011;49381;49.338;8.794;2022-12-22T05:29:00;4.00;;;1.08;;
63157;SDS011;49381;49.338;8.794;2022-12-22T05:31:01;6.63;;;1.20;;
63157;SDS011;49381;49.338;8.794;2022-12-22T05:33:02;4.30;;;1.58;;
63157;SDS011;49381;49.338;8.794;2022-12-22T05:35:03;4.90;;;0.95;;
63157;SDS011;49381;49.338;8.794;2022-12-22T05:37:04;2.47;;;1.20;;
63157;SDS011;49381;49.338;8.794;2022-12-22T05:39:04;6.03;;;1.20;;
63157;SDS011;49381;49.338;8.794;2022-12-22T05:41:06;3.67;;;1.15;;
63157;SDS011;49381;49.338;8.794;2022-12-22T05:43:06;5.22;;;1.00;;
63157;SDS011;49381;49.338;8.794;2022-12-22T05:45:09;4.22;;;1.20;;
63157;SDS011;49381;49.338;8.794;2022-12-22T05:47:11;3.53;;;1.60;;
63157;SDS011;49381;49.338;8.794;2022-12-22T05:51:26;6.90;;;1.40;;
63157;SDS011;49381;49.338;8.794;2022-12-22T05:53:28;3.92;;;0.82;;
63157;SDS011;49381;49.338;8.794;2022-12-22T05:55:31;4.85;;;1.08;;
63157;SDS011;49381;49.338;8.794;2022-12-22T05:57:33;3.20;;;1.08;;
63157;SDS011;49381;49.338;8.794;2022-12-22T05:59:34;5.07;;;1.00;;
63157;SDS011;49381;49.338;8.794;2022-12-22T06:01:37;2.15;;;0.85;;
63157;SDS011;49381;49.338;8.794;2022-12-22T06:03:48;4.70;;;1.95;;
63157;SDS011;49381;49.338;8.794;2022-12-22T06:05:51;4.97;;;1.30;;
63157;SDS011;49381;49.338;8.794;2022-12-22T06:07:57;5.28;;;1.88;;
63157;SDS011;49381;49.338;8.794;2022-12-22T06:09:57;4.35;;;1.15;;
63157;SDS011;49381;49.338;8.794;2022-12-22T06:11:58;6.85;;;1.10;;
63157;SDS011;49381;49.338;8.794;2022-12-22T06:14:00;3.08;;;1.10;;
63157;SDS011;49381;49.338;8.794;2022-12-22T06:16:03;3.88;;;1.13;;
63157;SDS011;49381;49.338;8.794;2022-12-22T06:18:12;1.70;;;0.82;;
63157;SDS011;49381;49.338;8.794;2022-12-22T06:20:20;4.95;;;1.38;;
63157;SDS011;49381;49.338;8.794;2022-12-22T06:22:26;4.78;;;1.02;;
63157;SDS011;49381;49.338;8.794;2022-12-22T06:24:33;4.40;;;1.10;;
63157;SDS011;49381;49.338;8.794;2022-12-22T06:26:39;7.90;;;4.40;;
63157;SDS011;49381;49.338;8.794;2022-12-22T06:30:55;5.00;;;1.50;;
63157;SDS011;49381;49.338;8.794;2022-12-22T06:33:00;4.60;;;1.52;;
63157;SDS011;49381;49.338;8.794;2022-12-22T06:35:03;4.95;;;1.10;;
63157;SDS011;49381;49.338;8.794;2022-12-22T06:37:12;5.95;;;1.27;;
63157;SDS011;49381;49.338;8.794;2022-12-22T06:39:18;4.45;;;1.23;;
63157;SDS011;49381;49.338;8.794;2022-12-22T06:41:25;4.63;;;1.23;;
63157;SDS011;49381;49.338;8.794;2022-12-22T06:43:25;8.90;;;2.67;;
63157;SDS011;49381;49.338;8.794;2022-12-22T06:45:26;9.30;;;1.58;;
63157;SDS011;49381;49.338;8.794;2022-12-22T06:47:28;10.65;;;2.30;;
63157;SDS011;49381;49.338;8.794;2022-12-22T06:49:42;5.07;;;1.42;;
63157;SDS011;49381;49.338;8.794;2022-12-22T06:51:43;9.43;;;1.52;;
63157;SDS011;49381;49.338;8.794;2022-12-22T06:53:46;7.07;;;1.40;;
63157;SDS011;49381;49.338;8.794;2022-12-22T06:55:53;5.13;;;1.20;;
63157;SDS011;49381;49.338;8.794;2022-12-22T06:57:59;8.85;;;1.80;;
63157;SDS011;49381;49.338;8.794;2022-12-22T07:00:06;5.93;;;1.58;;
63157;SDS011;49381;49.338;8.794;2022-12-22T07:02:13;6.50;;;2.00;;
63157;SDS011;49381;49.338;8.794;2022-12-22T07:04:23;4.85;;;1.25;;
63157;SDS011;49381;49.338;8.794;2022-12-22T07:06:25;5.85;;;1.58;;
63157;SDS011;49381;49.338;8.794;2022-12-22T07:08:26;5.88;;;1.50;;
63157;SDS011;49381;49.338;8.794;2022-12-22T07:10:26;7.03;;;1.67;;
63157;SDS011;49381;49.338;8.794;2022-12-22T07:12:27;9.88;;;1.98;;
63157;SDS011;49381;49.338;8.794;2022-12-22T07:14:32;7.57;;;1.60;;
63157;SDS011;49381;49.338;8.794;2022-12-22T07:16:33;5.88;;;1.70;;
63157;SDS011;49381;49.338;8.794;2022-12-22T07:18:39;8.30;;;1.40;;
63157;SDS011;49381;49.338;8.794;2022-12-22T07:20:42;12.18;;;1.80;;
63157;SDS011;49381;49.338;8.794;2022-12-22T07:22:43;11.77;;;2.15;;
63157;SDS011;49381;49.338;8.794;2022-12-22T07:24:43;8.82;;;1.92;;
63157;SDS011;49381;49.338;8.794;2022-12-22T07:26:43;10.70;;;1.50;;
63157;SDS011;49381;49.338;8.794;2022-12-22T07:28:44;8.10;;;2.28;;
63157;SDS011;49381;49.338;8.794;2022-12-22T07:30:44;10.20;;;1.40;;
63157;SDS011;49381;49.338;8.794;2022-12-22T07:32:45;8.52;;;2.03;;
63157;SDS011;49381;49.338;8.794;2022-12-22T07:34:45;8.05;;;1.73;;
63157;SDS011;49381;49.338;8.794;2022-12-22T07:36:54;9.02;;;2.10;;
63157;SDS011;49381;49.338;8.794;2022-12-22T07:39:04;8.85;;;1.77;;
63157;SDS011;49381;49.338;8.794;2022-12-22T07:41:06;8.43;;;1.40;;
63157;SDS011;49381;49.338;8.794;2022-12-22T07:43:08;9.45;;;1.92;;
63157;SDS011;49381;49.338;8.794;2022-12-22T07:45:08;7.07;;;1.50;;
63157;SDS011;49381;49.338;8.794;2022-12-22T07:47:09;8.23;;;1.63;;
63157;SDS011;49381;49.338;8.794;2022-12-22T07:49:12;7.93;;;1.70;;
63157;SDS011;49381;49.338;8.794;2022-12-22T07:51:12;7.82;;;1.92;;
63157;SDS011;49381;49.338;8.794;2022-12-22T07:53:14;5.57;;;1.52;;
63157;SDS011;49381;49.338;8.794;2022-12-22T07:55:14;9.55;;;1.83;;
63157;SDS011;49381;49.338;8.794;2022-12-22T07:57:23;7.07;;;1.55;;
63157;SDS011;49381;49.338;8.794;2022-12-22T07:59:25;8.13;;;1.92;;
63157;SDS011;49381;49.338;8.794;2022-12-22T08:01:29;11.57;;;1.60;;
63157;SDS011;49381;49.338;8.794;2022-12-22T08:06:13;9.63;;;1.60;;
63157;SDS011;49381;49.338;8.794;2022-12-22T08:08:18;11.90;;;1.83;;
63157;SDS011;49381;49.338;8.794;2022-12-22T08:10:28;7.38;;;1.50;;
63157;SDS011;49381;49.338;8.794;2022-12-22T08:12:29;9.55;;;1.88;;
63157;SDS011;49381;49.338;8.794;2022-12-22T08:14:35;7.55;;;1.75;;
63157;SDS011;49381;49.338;8.794;2022-12-22T08:18:40;7.53;;;1.60;;
63157;SDS011;49381;49.338;8.794;2022-12-22T08:20:47;9.30;;;2.25;;
63157;SDS011;49381;49.338;8.794;2022-12-22T08:22:48;8.52;;;2.22;;
63157;SDS011;49381;49.338;8.794;2022-12-22T08:24:50;8.90;;;2.20;;
63157;SDS011;49381;49.338;8.794;2022-12-22T08:26:51;12.02;;;1.95;;
63157;SDS011;49381;49.338;8.794;2022-12-22T08:28:57;9.63;;;1.65;;
63157;SDS011;49381;49.338;8.794;2022-12-22T08:31:03;9.30;;;1.80;;
63157;SDS011;49381;49.338;8.794;2022-12-22T08:33:04;11.88;;;1.70;;
63157;SDS011;49381;49.338;8.794;2022-12-22T08:35:04;11.23;;;2.42;;
63157;SDS011;49381;49.338;8.794;2022-12-22T08:37:06;10.60;;;2.10;;
63157;SDS011;49381;49.338;8.794;2022-12-22T08:39:13;11.77;;;2.08;;
63157;SDS011;49381;49.338;8.794;2022-12-22T08:41:16;11.73;;;2.47;;
63157;SDS011;49381;49.338;8.794;2022-12-22T08:43:17;10.65;;;2.45;;
63157;SDS011;49381;49.338;8.794;2022-12-22T08:45:19;11.98;;;2.40;;
63157;SDS011;49381;49.338;8.794;2022-12-22T08:47:19;11.52;;;2.05;;
63157;SDS011;49381;49.338;8.794;2022-12-22T08:49:21;9.25;;;1.48;;
63157;SDS011;49381;49.338;8.794;2022-12-22T08:51:23;10.50;;;2.33;;
63157;SDS011;49381;49.338;8.794;2022-12-22T08:53:24;10.80;;;2.75;;
63157;SDS011;49381;49.338;8.794;2022-12-22T08:55:24;7.88;;;2.03;;
63157;SDS011;49381;49.338;8.794;2022-12-22T08:57:26;11.30;;;1.95;;
63157;SDS011;49381;49.338;8.794;2022-12-22T08:59:26;10.68;;;2.10;;
63157;SDS011;49381;49.338;8.794;2022-12-22T09:01:27;14.43;;;2.60;;
63157;SDS011;49381;49.338;8.794;2022-12-22T09:03:27;13.82;;;2.35;;
63157;SDS011;49381;49.338;8.794;2022-12-22T09:05:28;13.20;;;2.58;;
63157;SDS011;49381;49.338;8.794;2022-12-22T09:07:28;15.27;;;2.47;;
63157;SDS011;49381;49.338;8.794;2022-12-22T09:09:29;10.90;;;2.35;;
63157;SDS011;49381;49.338;8.794;2022-12-22T09:11:30;9.85;;;1.98;;
63157;SDS011;49381;49.338;8.794;2022-12-22T09:13:33;11.30;;;2.22;;
63157;SDS011;49381;49.338;8.794;2022-12-22T09:15:34;11.63;;;2.20;;
63157;SDS011;49381;49.338;8.794;2022-12-22T09:17:35;7.90;;;1.90;;
63157;SDS011;49381;49.338;8.794;2022-12-22T09:19:36;11.88;;;1.88;;
63157;SDS011;49381;49.338;8.794;2022-12-22T09:21:36;8.65;;;1.88;;
63157;SDS011;49381;49.338;8.794;2022-12-22T09:23:37;7.45;;;1.77;;
63157;SDS011;49381;49.338;8.794;2022-12-22T09:25:37;10.18;;;2.13;;
63157;SDS011;49381;49.338;8.794;2022-12-22T09:27:37;5.85;;;1.48;;
63157;SDS011;49381;49.338;8.794;2022-12-22T09:29:40;8.45;;;1.25;;
63157;SDS011;49381;49.338;8.794;2022-12-22T09:31:40;9.45;;;1.25;;
63157;SDS011;49381;49.338;8.794;2022-12-22T09:33:41;5.18;;;1.52;;
63157;SDS011;49381;49.338;8.794;2022-12-22T09:35:41;10.93;;;2.22;;
63157;SDS011;49381;49.338;8.794;2022-12-22T09:37:41;7.28;;;1.10;;
63157;SDS011;49381;49.338;8.794;2022-12-22T09:39:42;11.77;;;1.90;;
63157;SDS011;49381;49.338;8.794;2022-12-22T09:41:44;6.80;;;1.50;;
63157;SDS011;49381;49.338;8.794;2022-12-22T09:43:46;11.52;;;2.00;;
63157;SDS011;49381;49.338;8.794;2022-12-22T09:45:48;5.45;;;1.25;;
63157;SDS011;49381;49.338;8.794;2022-12-22T09:47:51;4.88;;;1.30;;
63157;SDS011;49381;49.338;8.794;2022-12-22T09:49:54;12.70;;;1.40;;
63157;SDS011;49381;49.338;8.794;2022-12-22T09:51:56;6.80;;;1.55;;
63157;SDS011;49381;49.338;8.794;2022-12-22T09:53:58;7.88;;;1.63;;
63157;SDS011;49381;49.338;8.794;2022-12-22T09:56:00;11.75;;;1.80;;
63157;SDS011;49381;49.338;8.794;2022-12-22T09:58:00;7.03;;;1.75;;
63157;SDS011;49381;49.338;8.794;2022-12-22T10:00:05;8.73;;;1.90;;
63157;SDS011;49381;49.338;8.794;2022-12-22T10:02:23;9.13;;;1.40;;
63157;SDS011;49381;49.338;8.794;2022-12-22T10:04:31;5.00;;;1.15;;
63157;SDS011;49381;49.338;8.794;2022-12-22T10:06:49;7.40;;;2.25;;
63157;SDS011;49381;49.338;8.794;2022-12-22T10:08:54;6.93;;;1.30;;
63157;SDS011;49381;49.338;8.794;2022-12-22T10:10:55;4.85;;;1.20;;
63157;SDS011;49381;49.338;8.794;2022-12-22T10:12:56;5.90;;;1.75;;
63157;SDS011;49381;49.338;8.794;2022-12-22T10:14:58;6.93;;;1.50;;
63157;SDS011;49381;49.338;8.794;2022-12-22T10:17:16;6.75;;;1.38;;
63157;SDS011;49381;49.338;8.794;2022-12-22T10:19:19;5.28;;;1.15;;
63157;SDS011;49381;49.338;8.794;2022-12-22T10:21:20;9.27;;;1.70;;
63157;SDS011;49381;49.338;8.794;2022-12-22T10:23:23;7.82;;;1.75;;
63157;SDS011;49381;49.338;8.794;2022-12-22T10:25:31;5.93;;;1.35;;
63157;SDS011;49381;49.338;8.794;2022-12-22T10:27:33;7.95;;;1.63;;
63157;SDS011;49381;49.338;8.794;2022-12-22T10:29:36;6.25;;;1.65;;
63157;SDS011;49381;49.338;8.794;2022-12-22T10:31:53;7.75;;;1.55;;
63157;SDS011;49381;49.338;8.794;2022-12-22T10:34:09;5.28;;;1.10;;
63157;SDS011;49381;49.338;8.794;2022-12-22T10:36:11;6.78;;;1.48;;
63157;SDS011;49381;49.338;8.794;2022-12-22T10:38:13;6.25;;;1.73;;
63157;SDS011;49381;49.338;8.794;2022-12-22T10:40:17;6.35;;;1.42;;
63157;SDS011;49381;49.338;8.794;2022-12-22T10:42:20;12.55;;;1.60;;
63157;SDS011;49381;49.338;8.794;2022-12-22T10:44:21;6.20;;;1.45;;
63157;SDS011;49381;49.338;8.794;2022-12-22T10:46:31;7.05;;;1.80;;
63157;SDS011;49381;49.338;8.794;2022-12-22T10:48:35;7.72;;;1.80;;
63157;SDS011;49381;49.338;8.794;2022-12-22T10:50:38;5.68;;;1.50;;
63157;SDS011;49381;49.338;8.794;2022-12-22T10:52:48;5.55;;;1.42;;
63157;SDS011;49381;49.338;8.794;2022-12-22T10:54:50;9.18;;;1.63;;
63157;SDS011;49381;49.338;8.794;2022-12-22T10:56:57;8.85;;;2.05;;
63157;SDS011;49381;49.338;8.794;2022-12-22T10:59:03;6.50;;;1.48;;
63157;SDS011;49381;49.338;8.794;2022-12-22T11:01:12;7.03;;;1.55;;
63157;SDS011;49381;49.338;8.794;2022-12-22T11:03:27;6.50;;;1.33;;
63157;SDS011;49381;49.338;8.794;2022-12-22T11:05:28;5.55;;;1.45;;
63157;SDS011;49381;49.338;8.794;2022-12-22T11:07:32;7.00;;;1.38;;
63157;SDS011;49381;49.338;8.794;2022-12-22T11:09:34;8.10;;;1.38;;
63157;SDS011;49381;49.338;8.794;2022-12-22T11:11:36;6.15;;;1.27;;
63157;SDS011;49381;49.338;8.794;2022-12-22T11:13:44;4.20;;;1.50;;
63157;SDS011;49381;49.338;8.794;2022-12-22T11:15:52;7.47;;;1.98;;
63157;SDS011;49381;49.338;8.794;2022-12-22T11:18:00;4.65;;;1.77;;
63157;SDS011;49381;49.338;8.794;2022-12-22T11:20:20;6.88;;;1.58;;
63157;SDS011;49381;49.338;8.794;2022-12-22T11:22:35;10.15;;;1.83;;
63157;SDS011;49381;49.338;8.794;2022-12-22T11:24:43;8.45;;;1.50;;
63157;SDS011;49381;49.338;8.794;2022-12-22T11:26:54;5.18;;;1.38;;
63157;SDS011;49381;49.338;8.794;2022-12-22T11:29:26;6.93;;;2.00;;
63157;SDS011;49381;49.338;8.794;2022-12-22T11:31:42;4.65;;;1.55;;
63157;SDS011;49381;49.338;8.794;2022-12-22T11:33:57;9.10;;;2.00;;
63157;SDS011;49381;49.338;8.794;2022-12-22T11:36:08;5.35;;;1.65;;
63157;SDS011;49381;49.338;8.794;2022-12-22T11:38:21;7.45;;;1.80;;
63157;SDS011;49381;49.338;8.794;2022-12-22T11:40:31;6.05;;;1.70;;
63157;SDS011;49381;49.338;8.794;2022-12-22T11:42:43;6.75;;;1.38;;
63157;SDS011;49381;49.338;8.794;2022-12-22T11:44:57;8.15;;;1.83;;
63157;SDS011;49381;49.338;8.794;2022-12-22T11:47:11;8.70;;;2.35;;
63157;SDS011;49381;49.338;8.794;2022-12-22T11:49:24;8.77;;;2.50;;
63157;SDS011;49381;49.338;8.794;2022-12-22T11:51:40;8.13;;;1.30;;
63157;SDS011;49381;49.338;8.794;2022-12-22T11:54:04;7.45;;;1.60;;
63157;SDS011;49381;49.338;8.794;2022-12-22T11:56:20;8.18;;;1.98;;
63157;SDS011;49381;49.338;8.794;2022-12-22T11:58:26;5.78;;;1.38;;
63157;SDS011;49381;49.338;8.794;2022-12-22T12:00:36;7.13;;;1.42;;
63157;SDS011;49381;49.338;8.794;2022-12-22T12:05:13;6.03;;;1.23;;
63157;SDS011;49381;49.338;8.794;2022-12-22T12:07:24;4.50;;;1.30;;
63157;SDS011;49381;49.338;8.794;2022-12-22T12:09:32;7.15;;;1.20;;
63157;SDS011;49381;49.338;8.794;2022-12-22T12:11:45;8.45;;;1.25;;
63157;SDS011;49381;49.338;8.794;2022-12-22T12:13:53;7.57;;;1.45;;
63157;SDS011;49381;49.338;8.794;2022-12-22T12:16:05;7.28;;;1.30;;
63157;SDS011;49381;49.338;8.794;2022-12-22T12:18:24;6.90;;;1.50;;
63157;SDS011;49381;49.338;8.794;2022-12-22T12:20:39;4.38;;;1.30;;
63157;SDS011;49381;49.338;8.794;2022-12-22T12:22:53;7.95;;;1.42;;
63157;SDS011;49381;49.338;8.794;2022-12-22T12:25:09;7.85;;;2.75;;
63157;SDS011;49381;49.338;8.794;2022-12-22T12:27:35;7.95;;;2.50;;
63157;SDS011;49381;49.338;8.794;2022-12-22T12:29:53;7.72;;;2.38;;
63157;SDS011;49381;49.338;8.794;2022-12-22T12:31:59;4.63;;;1.45;;
63157;SDS011;49381;49.338;8.794;2022-12-22T12:34:10;7.30;;;1.65;;
63157;SDS011;49381;49.338;8.794;2022-12-22T12:36:13;5.60;;;1.08;;
63157;SDS011;49381;49.338;8.794;2022-12-22T12:38:22;4.93;;;1.70;;
63157;SDS011;49381;49.338;8.794;2022-12-22T12:40:33;7.38;;;1.40;;
63157;SDS011;49381;49.338;8.794;2022-12-22T12:42:43;7.25;;;1.17;;
63157;SDS011;49381;49.338;8.794;2022-12-22T12:44:45;8.73;;;1.73;;
63157;SDS011;49381;49.338;8.794;2022-12-22T12:47:02;7.72;;;1.90;;
63157;SDS011;49381;49.338;8.794;2022-12-22T12:49:10;8.68;;;2.65;;
63157;SDS011;49381;49.338;8.794;2022-12-22T12:51:52;7.20;;;2.08;;